Abiquiu, NM

2:23 PM MST on December 22, 2014 (GMT -0700)
Plaza Blanca | Change Station
CLOSE
Current Station
Personal Weather Station
Location: Abiquiu, NM
Elevation: 6154 ft
Nearby Weather Stations

Elev 6154 ft 36.22 °N, 106.28 °W | Updated 17 seconds ago

Overcast
Overcast
50.0 °F
Feels Like 43 °F
N
23.3
Wind Variable Wind from West
Gusts 23.3 mph

Today
High -- | Low -- °F
--% Chance of Precip.
Yesterday
High -- | Low -- °F
Precip. -- in
7:12 AM 4:54 PM
New Moon, 1% visible
Pressure 29.70 in
Visibility 10.0 miles
Clouds Scattered Clouds 2600 ft
Mostly Cloudy 6500 ft
Overcast 8000 ft
Windchill 43 °F
Dew Point 31 °F
Humidity 48%
Rainfall 0.00 in
Snow Depth Not available.
UV 1 out of 12
Pollen 5.00 out of 12
Air Quality Not available.
Flu Activity Not available.
METAR KLAM 222115Z AUTO 27019G41KT 10SM SCT026 BKN065 OVC080 08/M03 A2970 RMK AO2 T00791027

More Conditions Fewer Conditions

Pressure 29.70 in
Visibility 10.0 miles
Clouds Scattered Clouds 2600 ft
Mostly Cloudy 6500 ft
Overcast 8000 ft
Windchill 43 °F
Dew Point 31 °F
Humidity 48%
Rainfall 0.00 in
Snow Depth Not available.
UV 1 out of 12
Pollen 5.00 out of 12
Air Quality Not available.
Flu Activity Not available.
METAR KLAM 222115Z AUTO 27019G41KT 10SM SCT026 BKN065 OVC080 08/M03 A2970 RMK AO2 T00791027

More Conditions Fewer Conditions

10-Day Weather Forecast

Almanac

Astronomy

Dec. 22, 2014 Rise Set
Actual Time
Civil Twilight
Nautical Twilight
Astronomical Twilight
Moon
Length of Visible Light
Length of Day
Tomorrow will be .
, % of the Moon is Illuminated

Today's Extremes

State Highs State Lows

Community

WunderPhotos

Upload Photos

1,779,682 photos uploaded!

WunderBlogs® & News

Nearby

Air Quality

  Air Quality AQ Index Pollutant
Not available.

Snow Depth

Station Depth Elevation

Earthquake Activity

City Distance Mag. Time & Date
Minimum magnitude displayed is 2.5.

Coastal Water Temperatures

Place Temperature

Nearby Weather Stations